Terminal Aerodrome Forecast
Issued by NWS

Home | Current Version | Previous Version | Text Only | Print | Product List | Glossary On
Versions: 1 2 3 4 5 6 7 8 9 10 11 12 13 14 15
647
FTUS46 KSTO 221742
TAFSAC
TAF
KSAC 221742Z 2218/2318 18010G25KT P6SM BKN050
     FM222100 18010G20KT P6SM VCTS OVC030CB
     FM230600 20012KT 6SM -SHRA OVC030
     FM231100 17008KT P6SM OVC040=

USA.gov is the U.S. government's official web portal to all federal, state and local government web resources and services.